sensor_id;sensor_type;location;lat;lon;timestamp;temperature;humidity
23671;DHT22;12012;51.998;7.614;2023-02-28T00:00:26;-0.30;99.90
23671;DHT22;12012;51.998;7.614;2023-02-28T00:02:51;-0.30;99.90
23671;DHT22;12012;51.998;7.614;2023-02-28T00:05:19;-0.30;99.90
23671;DHT22;12012;51.998;7.614;2023-02-28T00:07:45;-0.40;99.90
23671;DHT22;12012;51.998;7.614;2023-02-28T00:10:13;-0.40;99.90
23671;DHT22;12012;51.998;7.614;2023-02-28T00:12:40;-0.50;99.90
23671;DHT22;12012;51.998;7.614;2023-02-28T00:15:09;-0.50;99.90
23671;DHT22;12012;51.998;7.614;2023-02-28T00:17:34;-0.60;99.90
23671;DHT22;12012;51.998;7.614;2023-02-28T00:20:00;-0.60;99.90
23671;DHT22;12012;51.998;7.614;2023-02-28T00:22:37;-0.60;99.90
23671;DHT22;12012;51.998;7.614;2023-02-28T00:25:04;-0.60;99.90
23671;DHT22;12012;51.998;7.614;2023-02-28T00:27:30;-0.60;99.90
23671;DHT22;12012;51.998;7.614;2023-02-28T00:29:55;-0.60;99.90
23671;DHT22;12012;51.998;7.614;2023-02-28T00:32:21;-0.70;99.90
23671;DHT22;12012;51.998;7.614;2023-02-28T00:34:47;-0.70;99.90
23671;DHT22;12012;51.998;7.614;2023-02-28T00:37:12;-0.70;99.90
23671;DHT22;12012;51.998;7.614;2023-02-28T00:39:39;-0.70;99.90
23671;DHT22;12012;51.998;7.614;2023-02-28T00:42:05;-0.70;99.90
23671;DHT22;12012;51.998;7.614;2023-02-28T00:44:31;-0.70;99.90
23671;DHT22;12012;51.998;7.614;2023-02-28T00:46:58;-0.70;99.90
23671;DHT22;12012;51.998;7.614;2023-02-28T00:49:25;-0.70;99.90
23671;DHT22;12012;51.998;7.614;2023-02-28T00:51:51;-0.70;99.90
23671;DHT22;12012;51.998;7.614;2023-02-28T00:54:17;-0.70;99.90
23671;DHT22;12012;51.998;7.614;2023-02-28T00:56:43;-0.70;99.90
23671;DHT22;12012;51.998;7.614;2023-02-28T00:59:08;-0.70;99.90
23671;DHT22;12012;51.998;7.614;2023-02-28T01:01:34;-0.70;99.90
23671;DHT22;12012;51.998;7.614;2023-02-28T01:04:00;-0.70;99.90
23671;DHT22;12012;51.998;7.614;2023-02-28T01:06:26;-0.70;99.90
23671;DHT22;12012;51.998;7.614;2023-02-28T01:08:52;-0.70;1.00
23671;DHT22;12012;51.998;7.614;2023-02-28T01:11:18;-0.80;1.00
23671;DHT22;12012;51.998;7.614;2023-02-28T01:13:44;-0.80;1.00
23671;DHT22;12012;51.998;7.614;2023-02-28T01:16:10;-0.80;1.00
23671;DHT22;12012;51.998;7.614;2023-02-28T01:18:36;-0.80;1.00
23671;DHT22;12012;51.998;7.614;2023-02-28T01:21:06;-0.80;1.00
23671;DHT22;12012;51.998;7.614;2023-02-28T01:23:32;-0.90;1.00
23671;DHT22;12012;51.998;7.614;2023-02-28T01:26:06;-0.90;1.00
23671;DHT22;12012;51.998;7.614;2023-02-28T01:28:33;-0.90;1.00
23671;DHT22;12012;51.998;7.614;2023-02-28T01:30:58;-0.90;1.00
23671;DHT22;12012;51.998;7.614;2023-02-28T01:33:24;-0.90;1.00
23671;DHT22;12012;51.998;7.614;2023-02-28T01:36:00;-0.90;1.00
23671;DHT22;12012;51.998;7.614;2023-02-28T01:38:26;-1.00;1.00
23671;DHT22;12012;51.998;7.614;2023-02-28T01:40:52;-1.00;1.00
23671;DHT22;12012;51.998;7.614;2023-02-28T01:43:26;-1.00;1.00
23671;DHT22;12012;51.998;7.614;2023-02-28T01:45:53;-1.00;1.00
23671;DHT22;12012;51.998;7.614;2023-02-28T01:48:22;-1.10;1.00
23671;DHT22;12012;51.998;7.614;2023-02-28T01:50:51;-1.10;1.00
23671;DHT22;12012;51.998;7.614;2023-02-28T01:53:21;-1.10;1.00
23671;DHT22;12012;51.998;7.614;2023-02-28T01:55:49;-1.10;1.00
23671;DHT22;12012;51.998;7.614;2023-02-28T01:58:16;-1.10;1.00
23671;DHT22;12012;51.998;7.614;2023-02-28T02:00:42;-1.10;1.00
23671;DHT22;12012;51.998;7.614;2023-02-28T02:03:13;-1.10;1.00
23671;DHT22;12012;51.998;7.614;2023-02-28T02:05:40;-1.20;1.00
23671;DHT22;12012;51.998;7.614;2023-02-28T02:08:10;-1.30;1.00
23671;DHT22;12012;51.998;7.614;2023-02-28T02:10:42;-1.30;1.00
23671;DHT22;12012;51.998;7.614;2023-02-28T02:13:38;-1.30;1.00
23671;DHT22;12012;51.998;7.614;2023-02-28T02:16:45;-1.30;1.00
23671;DHT22;12012;51.998;7.614;2023-02-28T02:19:43;-1.40;1.00
23671;DHT22;12012;51.998;7.614;2023-02-28T02:22:37;-1.40;1.00
23671;DHT22;12012;51.998;7.614;2023-02-28T02:36:04;-1.50;1.00
23671;DHT22;12012;51.998;7.614;2023-02-28T02:39:25;-1.60;1.00
23671;DHT22;12012;51.998;7.614;2023-02-28T02:41:51;-1.60;1.00
23671;DHT22;12012;51.998;7.614;2023-02-28T02:44:21;-1.60;1.00
23671;DHT22;12012;51.998;7.614;2023-02-28T02:46:51;-1.70;1.00
23671;DHT22;12012;51.998;7.614;2023-02-28T02:49:28;-1.70;1.00
23671;DHT22;12012;51.998;7.614;2023-02-28T02:51:54;-1.80;1.00
23671;DHT22;12012;51.998;7.614;2023-02-28T02:54:25;-1.70;1.00
23671;DHT22;12012;51.998;7.614;2023-02-28T02:56:55;-1.70;1.00
23671;DHT22;12012;51.998;7.614;2023-02-28T02:59:22;-1.70;1.00
23671;DHT22;12012;51.998;7.614;2023-02-28T03:01:56;-1.70;1.00
23671;DHT22;12012;51.998;7.614;2023-02-28T03:04:24;-1.70;1.00
23671;DHT22;12012;51.998;7.614;2023-02-28T03:06:51;-1.70;13.30
23671;DHT22;12012;51.998;7.614;2023-02-28T03:09:21;-1.70;43.80
23671;DHT22;12012;51.998;7.614;2023-02-28T03:11:47;-1.70;64.00
23671;DHT22;12012;51.998;7.614;2023-02-28T03:14:35;-1.70;70.40
23671;DHT22;12012;51.998;7.614;2023-02-28T03:20:02;-1.70;22.10
23671;DHT22;12012;51.998;7.614;2023-02-28T03:30:49;-1.90;43.80
23671;DHT22;12012;51.998;7.614;2023-02-28T03:33:32;-1.90;6.80
23671;DHT22;12012;51.998;7.614;2023-02-28T03:36:04;-2.00;27.60
23671;DHT22;12012;51.998;7.614;2023-02-28T03:38:45;-2.00;23.40
23671;DHT22;12012;51.998;7.614;2023-02-28T03:41:21;-2.10;64.10
23671;DHT22;12012;51.998;7.614;2023-02-28T03:43:53;-2.10;94.80
23671;DHT22;12012;51.998;7.614;2023-02-28T03:46:20;-2.10;90.40
23671;DHT22;12012;51.998;7.614;2023-02-28T03:48:53;-2.10;99.90
23671;DHT22;12012;51.998;7.614;2023-02-28T03:51:23;-2.10;99.90
23671;DHT22;12012;51.998;7.614;2023-02-28T03:54:04;-2.10;99.90
23671;DHT22;12012;51.998;7.614;2023-02-28T03:56:33;-2.10;99.90
23671;DHT22;12012;51.998;7.614;2023-02-28T03:59:13;-2.10;99.90
23671;DHT22;12012;51.998;7.614;2023-02-28T04:01:48;-2.10;99.90
23671;DHT22;12012;51.998;7.614;2023-02-28T04:04:14;-2.10;99.90
23671;DHT22;12012;51.998;7.614;2023-02-28T04:06:41;-2.10;99.90
23671;DHT22;12012;51.998;7.614;2023-02-28T04:09:10;-2.10;99.90
23671;DHT22;12012;51.998;7.614;2023-02-28T04:14:07;-2.10;99.90
23671;DHT22;12012;51.998;7.614;2023-02-28T04:16:34;-2.10;99.90
23671;DHT22;12012;51.998;7.614;2023-02-28T04:19:02;-2.10;99.90
23671;DHT22;12012;51.998;7.614;2023-02-28T04:21:29;-2.10;99.90
23671;DHT22;12012;51.998;7.614;2023-02-28T04:23:55;-2.10;99.90
23671;DHT22;12012;51.998;7.614;2023-02-28T04:26:20;-2.10;99.90
23671;DHT22;12012;51.998;7.614;2023-02-28T04:28:46;-2.20;99.90
23671;DHT22;12012;51.998;7.614;2023-02-28T04:31:12;-2.30;99.90
23671;DHT22;12012;51.998;7.614;2023-02-28T04:33:37;-2.30;99.90
23671;DHT22;12012;51.998;7.614;2023-02-28T04:36:05;-2.40;99.90
23671;DHT22;12012;51.998;7.614;2023-02-28T04:38:33;-2.40;99.90
23671;DHT22;12012;51.998;7.614;2023-02-28T04:40:59;-2.50;99.90
23671;DHT22;12012;51.998;7.614;2023-02-28T04:43:28;-2.60;99.90
23671;DHT22;12012;51.998;7.614;2023-02-28T04:45:56;-2.70;99.90
23671;DHT22;12012;51.998;7.614;2023-02-28T04:48:25;-2.70;99.90
23671;DHT22;12012;51.998;7.614;2023-02-28T04:50:51;-2.70;99.90
23671;DHT22;12012;51.998;7.614;2023-02-28T04:53:17;-2.80;99.90
23671;DHT22;12012;51.998;7.614;2023-02-28T04:55:43;-2.80;99.90
23671;DHT22;12012;51.998;7.614;2023-02-28T04:58:09;-2.80;99.90
23671;DHT22;12012;51.998;7.614;2023-02-28T05:00:35;-2.90;91.40
23671;DHT22;12012;51.998;7.614;2023-02-28T05:03:01;-2.90;99.90
23671;DHT22;12012;51.998;7.614;2023-02-28T05:05:26;-2.90;99.90
23671;DHT22;12012;51.998;7.614;2023-02-28T05:07:52;-2.90;99.90
23671;DHT22;12012;51.998;7.614;2023-02-28T05:10:19;-2.90;99.90
23671;DHT22;12012;51.998;7.614;2023-02-28T05:12:44;-2.90;99.90
23671;DHT22;12012;51.998;7.614;2023-02-28T05:15:13;-2.90;99.90
23671;DHT22;12012;51.998;7.614;2023-02-28T05:17:39;-3.00;99.90
23671;DHT22;12012;51.998;7.614;2023-02-28T05:20:06;-3.00;99.90
23671;DHT22;12012;51.998;7.614;2023-02-28T05:22:32;-3.00;99.90
23671;DHT22;12012;51.998;7.614;2023-02-28T05:24:57;-3.00;99.90
23671;DHT22;12012;51.998;7.614;2023-02-28T05:27:23;-3.00;99.90
23671;DHT22;12012;51.998;7.614;2023-02-28T05:29:48;-3.00;99.90
23671;DHT22;12012;51.998;7.614;2023-02-28T05:32:14;-3.00;99.90
23671;DHT22;12012;51.998;7.614;2023-02-28T05:34:41;-3.10;99.90
23671;DHT22;12012;51.998;7.614;2023-02-28T05:37:11;-3.00;99.90
23671;DHT22;12012;51.998;7.614;2023-02-28T05:39:37;-3.10;99.90
23671;DHT22;12012;51.998;7.614;2023-02-28T05:42:04;-3.10;99.90
23671;DHT22;12012;51.998;7.614;2023-02-28T05:44:29;-3.00;99.90
23671;DHT22;12012;51.998;7.614;2023-02-28T05:46:55;-3.00;99.90
23671;DHT22;12012;51.998;7.614;2023-02-28T05:49:21;-3.00;99.90
23671;DHT22;12012;51.998;7.614;2023-02-28T05:51:47;-3.00;1.00
23671;DHT22;12012;51.998;7.614;2023-02-28T05:54:12;-3.00;1.00
23671;DHT22;12012;51.998;7.614;2023-02-28T05:56:38;-2.90;1.00
23671;DHT22;12012;51.998;7.614;2023-02-28T05:59:11;-2.90;1.00
23671;DHT22;12012;51.998;7.614;2023-02-28T06:01:40;-2.90;1.00
23671;DHT22;12012;51.998;7.614;2023-02-28T06:04:08;-2.90;1.00
23671;DHT22;12012;51.998;7.614;2023-02-28T06:06:34;-2.90;1.00
23671;DHT22;12012;51.998;7.614;2023-02-28T06:09:01;-2.80;1.00
23671;DHT22;12012;51.998;7.614;2023-02-28T06:11:27;-2.80;1.00
23671;DHT22;12012;51.998;7.614;2023-02-28T06:13:54;-2.90;1.00
23671;DHT22;12012;51.998;7.614;2023-02-28T06:16:21;-2.90;1.00
23671;DHT22;12012;51.998;7.614;2023-02-28T06:18:46;-2.90;1.00
23671;DHT22;12012;51.998;7.614;2023-02-28T06:21:12;-2.90;1.00
23671;DHT22;12012;51.998;7.614;2023-02-28T06:23:38;-2.80;1.00
23671;DHT22;12012;51.998;7.614;2023-02-28T06:26:03;-2.80;1.00
23671;DHT22;12012;51.998;7.614;2023-02-28T06:28:29;-2.80;1.00
23671;DHT22;12012;51.998;7.614;2023-02-28T06:30:55;-2.90;1.00
23671;DHT22;12012;51.998;7.614;2023-02-28T06:33:20;-2.80;1.00
23671;DHT22;12012;51.998;7.614;2023-02-28T06:35:50;-2.90;1.00
23671;DHT22;12012;51.998;7.614;2023-02-28T06:38:15;-2.90;1.00
23671;DHT22;12012;51.998;7.614;2023-02-28T06:40:41;-2.80;99.90
23671;DHT22;12012;51.998;7.614;2023-02-28T06:43:07;-2.80;99.90
23671;DHT22;12012;51.998;7.614;2023-02-28T06:45:32;-2.80;1.00
23671;DHT22;12012;51.998;7.614;2023-02-28T06:47:58;-2.80;5.80
23671;DHT22;12012;51.998;7.614;2023-02-28T06:50:25;-2.80;99.90
23671;DHT22;12012;51.998;7.614;2023-02-28T06:52:52;-2.70;94.30
23671;DHT22;12012;51.998;7.614;2023-02-28T06:55:19;-2.70;1.00
23671;DHT22;12012;51.998;7.614;2023-02-28T06:57:45;-2.70;1.00
23671;DHT22;12012;51.998;7.614;2023-02-28T07:00:11;-2.60;57.70
23671;DHT22;12012;51.998;7.614;2023-02-28T07:02:37;-2.70;1.00
23671;DHT22;12012;51.998;7.614;2023-02-28T07:05:04;-2.60;1.00
23671;DHT22;12012;51.998;7.614;2023-02-28T07:07:30;-2.60;1.00
23671;DHT22;12012;51.998;7.614;2023-02-28T07:09:55;-2.50;1.00
23671;DHT22;12012;51.998;7.614;2023-02-28T07:12:21;-2.50;1.00
23671;DHT22;12012;51.998;7.614;2023-02-28T07:14:47;-2.50;1.00
23671;DHT22;12012;51.998;7.614;2023-02-28T07:17:13;-2.40;1.00
23671;DHT22;12012;51.998;7.614;2023-02-28T07:19:39;-2.30;1.00
23671;DHT22;12012;51.998;7.614;2023-02-28T07:22:05;-2.20;1.00
23671;DHT22;12012;51.998;7.614;2023-02-28T07:24:31;-2.10;1.00
23671;DHT22;12012;51.998;7.614;2023-02-28T07:26:57;-1.90;1.00
23671;DHT22;12012;51.998;7.614;2023-02-28T07:29:22;-1.80;1.00
23671;DHT22;12012;51.998;7.614;2023-02-28T07:31:48;-1.60;48.80
23671;DHT22;12012;51.998;7.614;2023-02-28T07:34:16;-1.40;46.40
23671;DHT22;12012;51.998;7.614;2023-02-28T07:36:41;-1.20;9.20
23671;DHT22;12012;51.998;7.614;2023-02-28T07:39:07;-1.00;1.00
23671;DHT22;12012;51.998;7.614;2023-02-28T07:41:34;-0.80;94.60
23671;DHT22;12012;51.998;7.614;2023-02-28T07:44:03;-0.60;79.10
23671;DHT22;12012;51.998;7.614;2023-02-28T07:46:28;-0.30;52.20
23671;DHT22;12012;51.998;7.614;2023-02-28T07:49:00;-0.10;83.60
23671;DHT22;12012;51.998;7.614;2023-02-28T07:51:28;0.20;28.70
23671;DHT22;12012;51.998;7.614;2023-02-28T07:53:54;0.40;1.00
23671;DHT22;12012;51.998;7.614;2023-02-28T07:56:19;0.60;1.00
23671;DHT22;12012;51.998;7.614;2023-02-28T07:58:45;0.80;1.00
23671;DHT22;12012;51.998;7.614;2023-02-28T08:01:11;1.10;1.00
23671;DHT22;12012;51.998;7.614;2023-02-28T08:03:38;1.30;1.00
23671;DHT22;12012;51.998;7.614;2023-02-28T08:06:04;1.50;1.00
23671;DHT22;12012;51.998;7.614;2023-02-28T08:08:30;1.80;1.00
23671;DHT22;12012;51.998;7.614;2023-02-28T08:11:00;2.00;1.00
23671;DHT22;12012;51.998;7.614;2023-02-28T08:13:27;2.20;99.90
23671;DHT22;12012;51.998;7.614;2023-02-28T08:15:54;2.50;99.90
23671;DHT22;12012;51.998;7.614;2023-02-28T08:18:20;2.70;99.90
23671;DHT22;12012;51.998;7.614;2023-02-28T08:20:46;3.00;99.90
23671;DHT22;12012;51.998;7.614;2023-02-28T08:23:12;3.30;99.90
23671;DHT22;12012;51.998;7.614;2023-02-28T08:25:37;3.50;99.90
23671;DHT22;12012;51.998;7.614;2023-02-28T08:28:03;3.70;44.00
23671;DHT22;12012;51.998;7.614;2023-02-28T08:30:28;4.00;1.00
23671;DHT22;12012;51.998;7.614;2023-02-28T08:32:54;4.20;1.00
23671;DHT22;12012;51.998;7.614;2023-02-28T08:35:21;4.40;1.00
23671;DHT22;12012;51.998;7.614;2023-02-28T08:37:49;4.60;1.00
23671;DHT22;12012;51.998;7.614;2023-02-28T08:40:16;4.80;1.00
23671;DHT22;12012;51.998;7.614;2023-02-28T08:42:46;5.00;99.90
23671;DHT22;12012;51.998;7.614;2023-02-28T08:45:13;5.20;99.90
23671;DHT22;12012;51.998;7.614;2023-02-28T08:47:39;5.30;99.90
23671;DHT22;12012;51.998;7.614;2023-02-28T08:50:05;5.50;99.90
23671;DHT22;12012;51.998;7.614;2023-02-28T08:52:31;5.70;99.90
23671;DHT22;12012;51.998;7.614;2023-02-28T08:54:57;5.80;99.90
23671;DHT22;12012;51.998;7.614;2023-02-28T08:57:22;6.00;99.90
23671;DHT22;12012;51.998;7.614;2023-02-28T08:59:48;6.10;99.90
23671;DHT22;12012;51.998;7.614;2023-02-28T09:02:14;6.40;99.90
23671;DHT22;12012;51.998;7.614;2023-02-28T09:04:40;6.60;99.90
23671;DHT22;12012;51.998;7.614;2023-02-28T09:07:05;6.80;99.90
23671;DHT22;12012;51.998;7.614;2023-02-28T09:09:31;7.10;99.90
23671;DHT22;12012;51.998;7.614;2023-02-28T09:11:57;7.40;99.90
23671;DHT22;12012;51.998;7.614;2023-02-28T09:14:23;7.70;99.90
23671;DHT22;12012;51.998;7.614;2023-02-28T09:16:49;7.90;99.90
23671;DHT22;12012;51.998;7.614;2023-02-28T09:19:14;8.20;99.90
23671;DHT22;12012;51.998;7.614;2023-02-28T09:21:40;8.50;99.90
23671;DHT22;12012;51.998;7.614;2023-02-28T09:24:06;8.70;99.90
23671;DHT22;12012;51.998;7.614;2023-02-28T09:26:32;9.00;99.90
23671;DHT22;12012;51.998;7.614;2023-02-28T09:28:57;9.30;99.90
23671;DHT22;12012;51.998;7.614;2023-02-28T09:31:27;9.60;91.60
23671;DHT22;12012;51.998;7.614;2023-02-28T09:33:56;9.90;77.50
23671;DHT22;12012;51.998;7.614;2023-02-28T09:36:23;10.10;61.30
23671;DHT22;12012;51.998;7.614;2023-02-28T09:38:50;10.30;49.20
23671;DHT22;12012;51.998;7.614;2023-02-28T09:41:23;10.40;36.80
23671;DHT22;12012;51.998;7.614;2023-02-28T09:44:00;10.50;26.80
23671;DHT22;12012;51.998;7.614;2023-02-28T09:46:40;10.50;19.50
23671;DHT22;12012;51.998;7.614;2023-02-28T09:49:13;10.60;14.00
23671;DHT22;12012;51.998;7.614;2023-02-28T09:54:17;11.10;8.10
23671;DHT22;12012;51.998;7.614;2023-02-28T09:56:56;11.20;4.60
23671;DHT22;12012;51.998;7.614;2023-02-28T10:02:13;11.60;1.00
23671;DHT22;12012;51.998;7.614;2023-02-28T10:04:42;11.80;1.00
23671;DHT22;12012;51.998;7.614;2023-02-28T10:07:33;11.80;1.00
23671;DHT22;12012;51.998;7.614;2023-02-28T10:10:27;11.80;1.00
23671;DHT22;12012;51.998;7.614;2023-02-28T10:12:55;11.80;1.00
23671;DHT22;12012;51.998;7.614;2023-02-28T10:15:24;11.80;1.00
23671;DHT22;12012;51.998;7.614;2023-02-28T10:17:54;12.00;1.00
23671;DHT22;12012;51.998;7.614;2023-02-28T10:20:23;12.20;1.00
23671;DHT22;12012;51.998;7.614;2023-02-28T10:25:36;12.60;1.00
23671;DHT22;12012;51.998;7.614;2023-02-28T10:28:13;12.70;1.00
23671;DHT22;12012;51.998;7.614;2023-02-28T10:30:48;12.90;1.00
23671;DHT22;12012;51.998;7.614;2023-02-28T10:33:23;13.20;1.00
23671;DHT22;12012;51.998;7.614;2023-02-28T10:35:49;13.20;1.00
23671;DHT22;12012;51.998;7.614;2023-02-28T10:38:18;13.30;1.00
23671;DHT22;12012;51.998;7.614;2023-02-28T10:40:44;13.40;1.00
23671;DHT22;12012;51.998;7.614;2023-02-28T10:45:38;13.70;1.00
23671;DHT22;12012;51.998;7.614;2023-02-28T10:48:26;13.80;1.00
23671;DHT22;12012;51.998;7.614;2023-02-28T10:50:53;14.00;1.00
23671;DHT22;12012;51.998;7.614;2023-02-28T10:58:23;14.60;1.00
23671;DHT22;12012;51.998;7.614;2023-02-28T11:00:50;14.80;1.00
23671;DHT22;12012;51.998;7.614;2023-02-28T11:05:50;15.10;1.00
23671;DHT22;12012;51.998;7.614;2023-02-28T11:08:17;15.20;1.00
23671;DHT22;12012;51.998;7.614;2023-02-28T11:10:47;15.20;1.00
23671;DHT22;12012;51.998;7.614;2023-02-28T11:13:19;15.30;1.00
23671;DHT22;12012;51.998;7.614;2023-02-28T11:15:54;15.40;1.00
23671;DHT22;12012;51.998;7.614;2023-02-28T11:21:04;15.60;1.00
23671;DHT22;12012;51.998;7.614;2023-02-28T11:23:32;15.80;1.00
23671;DHT22;12012;51.998;7.614;2023-02-28T11:26:01;16.00;1.00
23671;DHT22;12012;51.998;7.614;2023-02-28T11:28:36;16.90;1.00
23671;DHT22;12012;51.998;7.614;2023-02-28T11:33:51;20.40;1.00
23671;DHT22;12012;51.998;7.614;2023-02-28T11:38:50;22.10;1.00
23671;DHT22;12012;51.998;7.614;2023-02-28T11:49:28;24.50;1.00
23671;DHT22;12012;51.998;7.614;2023-02-28T11:55:17;25.30;1.00
23671;DHT22;12012;51.998;7.614;2023-02-28T12:08:58;24.80;1.00
23671;DHT22;12012;51.998;7.614;2023-02-28T12:11:32;25.10;1.00
23671;DHT22;12012;51.998;7.614;2023-02-28T12:19:41;26.00;1.00
23671;DHT22;12012;51.998;7.614;2023-02-28T12:27:51;26.90;1.00
23671;DHT22;12012;51.998;7.614;2023-02-28T12:30:31;27.00;1.00
23671;DHT22;12012;51.998;7.614;2023-02-28T12:33:17;27.30;1.00
23671;DHT22;12012;51.998;7.614;2023-02-28T12:35:51;27.40;1.00
23671;DHT22;12012;51.998;7.614;2023-02-28T12:38:27;27.40;1.00
23671;DHT22;12012;51.998;7.614;2023-02-28T12:41:22;27.30;1.00
23671;DHT22;12012;51.998;7.614;2023-02-28T12:46:56;26.30;1.00
23671;DHT22;12012;51.998;7.614;2023-02-28T12:52:08;26.30;1.00
23671;DHT22;12012;51.998;7.614;2023-02-28T12:54:50;26.00;1.00
23671;DHT22;12012;51.998;7.614;2023-02-28T12:57:41;25.60;1.00
23671;DHT22;12012;51.998;7.614;2023-02-28T13:00:17;25.60;1.00
23671;DHT22;12012;51.998;7.614;2023-02-28T13:02:50;26.10;1.00
23671;DHT22;12012;51.998;7.614;2023-02-28T13:10:46;26.30;1.00
23671;DHT22;12012;51.998;7.614;2023-02-28T13:13:15;26.50;1.00
23671;DHT22;12012;51.998;7.614;2023-02-28T13:15:57;26.10;1.00
23671;DHT22;12012;51.998;7.614;2023-02-28T13:20:55;23.10;1.00
23671;DHT22;12012;51.998;7.614;2023-02-28T13:26:12;21.70;1.00
23671;DHT22;12012;51.998;7.614;2023-02-28T13:29:00;21.20;1.00
23671;DHT22;12012;51.998;7.614;2023-02-28T13:31:26;20.60;1.00
23671;DHT22;12012;51.998;7.614;2023-02-28T13:36:32;20.20;1.00
23671;DHT22;12012;51.998;7.614;2023-02-28T13:38:59;20.10;1.00
23671;DHT22;12012;51.998;7.614;2023-02-28T13:44:38;20.40;1.00
23671;DHT22;12012;51.998;7.614;2023-02-28T13:47:24;21.30;1.00
23671;DHT22;12012;51.998;7.614;2023-02-28T13:49:53;22.10;1.00
23671;DHT22;12012;51.998;7.614;2023-02-28T13:52:22;22.70;1.00
23671;DHT22;12012;51.998;7.614;2023-02-28T13:55:06;23.20;1.00
23671;DHT22;12012;51.998;7.614;2023-02-28T13:58:03;23.80;1.00
23671;DHT22;12012;51.998;7.614;2023-02-28T14:06:24;25.00;1.00
23671;DHT22;12012;51.998;7.614;2023-02-28T14:09:17;24.70;1.00
23671;DHT22;12012;51.998;7.614;2023-02-28T14:11:41;24.10;1.00
23671;DHT22;12012;51.998;7.614;2023-02-28T14:14:09;24.20;1.00
23671;DHT22;12012;51.998;7.614;2023-02-28T14:16:41;24.50;1.00
23671;DHT22;12012;51.998;7.614;2023-02-28T14:19:23;24.90;1.00
23671;DHT22;12012;51.998;7.614;2023-02-28T14:28:04;25.00;1.00
23671;DHT22;12012;51.998;7.614;2023-02-28T14:31:00;24.80;1.00
23671;DHT22;12012;51.998;7.614;2023-02-28T14:36:38;24.60;1.00
23671;DHT22;12012;51.998;7.614;2023-02-28T14:39:06;24.60;1.00
23671;DHT22;12012;51.998;7.614;2023-02-28T14:41:35;24.40;1.00
23671;DHT22;12012;51.998;7.614;2023-02-28T14:44:17;23.80;1.00
23671;DHT22;12012;51.998;7.614;2023-02-28T14:46:45;22.90;1.00
23671;DHT22;12012;51.998;7.614;2023-02-28T14:49:25;22.30;1.00
23671;DHT22;12012;51.998;7.614;2023-02-28T14:52:03;21.70;1.00
23671;DHT22;12012;51.998;7.614;2023-02-28T14:54:31;21.00;1.00
23671;DHT22;12012;51.998;7.614;2023-02-28T14:56:56;20.40;1.00
23671;DHT22;12012;51.998;7.614;2023-02-28T14:59:36;19.40;1.00
23671;DHT22;12012;51.998;7.614;2023-02-28T15:02:22;18.20;1.00
23671;DHT22;12012;51.998;7.614;2023-02-28T15:04:59;16.90;1.00
23671;DHT22;12012;51.998;7.614;2023-02-28T15:07:26;16.10;1.00
23671;DHT22;12012;51.998;7.614;2023-02-28T15:10:11;15.60;1.00
23671;DHT22;12012;51.998;7.614;2023-02-28T15:12:40;15.10;1.00
23671;DHT22;12012;51.998;7.614;2023-02-28T15:15:13;14.60;1.00
23671;DHT22;12012;51.998;7.614;2023-02-28T15:17:46;14.20;1.00
23671;DHT22;12012;51.998;7.614;2023-02-28T15:20:15;13.80;1.00
23671;DHT22;12012;51.998;7.614;2023-02-28T15:22:42;13.40;1.00
23671;DHT22;12012;51.998;7.614;2023-02-28T15:25:11;13.20;1.00
23671;DHT22;12012;51.998;7.614;2023-02-28T15:27:44;12.80;1.00
23671;DHT22;12012;51.998;7.614;2023-02-28T15:30:20;12.50;1.00
23671;DHT22;12012;51.998;7.614;2023-02-28T15:33:04;12.30;1.00
23671;DHT22;12012;51.998;7.614;2023-02-28T15:35:32;12.10;1.00
23671;DHT22;12012;51.998;7.614;2023-02-28T15:38:13;12.00;1.00
23671;DHT22;12012;51.998;7.614;2023-02-28T15:40:42;11.70;1.00
23671;DHT22;12012;51.998;7.614;2023-02-28T15:43:16;11.50;1.00
23671;DHT22;12012;51.998;7.614;2023-02-28T15:46:00;11.30;1.00
23671;DHT22;12012;51.998;7.614;2023-02-28T15:51:07;11.00;1.00
23671;DHT22;12012;51.998;7.614;2023-02-28T15:53:50;10.70;1.00
23671;DHT22;12012;51.998;7.614;2023-02-28T15:57:05;10.50;1.00
23671;DHT22;12012;51.998;7.614;2023-02-28T15:59:23;10.30;1.00
23671;DHT22;12012;51.998;7.614;2023-02-28T16:02:17;10.10;1.00
23671;DHT22;12012;51.998;7.614;2023-02-28T16:07:38;9.70;1.00
23671;DHT22;12012;51.998;7.614;2023-02-28T16:10:05;9.50;1.00
23671;DHT22;12012;51.998;7.614;2023-02-28T16:12:33;9.40;1.00
23671;DHT22;12012;51.998;7.614;2023-02-28T16:15:03;9.30;1.00
23671;DHT22;12012;51.998;7.614;2023-02-28T16:17:35;9.30;1.00
23671;DHT22;12012;51.998;7.614;2023-02-28T16:20:05;9.30;1.00
23671;DHT22;12012;51.998;7.614;2023-02-28T16:22:31;9.20;1.00
23671;DHT22;12012;51.998;7.614;2023-02-28T16:24:56;9.00;1.00
23671;DHT22;12012;51.998;7.614;2023-02-28T16:27:30;8.80;1.00
23671;DHT22;12012;51.998;7.614;2023-02-28T16:29:56;8.50;1.00
23671;DHT22;12012;51.998;7.614;2023-02-28T16:32:22;8.30;1.00
23671;DHT22;12012;51.998;7.614;2023-02-28T16:34:48;8.10;1.00
23671;DHT22;12012;51.998;7.614;2023-02-28T16:37:15;7.90;1.00
23671;DHT22;12012;51.998;7.614;2023-02-28T16:39:43;7.60;1.00
23671;DHT22;12012;51.998;7.614;2023-02-28T16:42:25;7.40;1.00
23671;DHT22;12012;51.998;7.614;2023-02-28T16:44:53;7.20;1.00
23671;DHT22;12012;51.998;7.614;2023-02-28T16:47:19;7.00;1.00
23671;DHT22;12012;51.998;7.614;2023-02-28T16:49:45;6.80;1.00
23671;DHT22;12012;51.998;7.614;2023-02-28T16:52:10;6.70;1.00
23671;DHT22;12012;51.998;7.614;2023-02-28T16:54:37;6.50;1.00
23671;DHT22;12012;51.998;7.614;2023-02-28T16:57:04;6.40;1.00
23671;DHT22;12012;51.998;7.614;2023-02-28T16:59:29;6.30;1.00
23671;DHT22;12012;51.998;7.614;2023-02-28T17:01:56;6.10;1.00
23671;DHT22;12012;51.998;7.614;2023-02-28T17:04:26;6.00;1.00
23671;DHT22;12012;51.998;7.614;2023-02-28T17:06:51;5.90;1.00
23671;DHT22;12012;51.998;7.614;2023-02-28T17:09:19;5.90;1.00
23671;DHT22;12012;51.998;7.614;2023-02-28T17:11:45;5.80;1.00
23671;DHT22;12012;51.998;7.614;2023-02-28T17:14:12;5.70;1.00
23671;DHT22;12012;51.998;7.614;2023-02-28T17:16:38;5.60;1.00
23671;DHT22;12012;51.998;7.614;2023-02-28T17:19:07;5.50;1.00
23671;DHT22;12012;51.998;7.614;2023-02-28T17:21:36;5.40;1.00
23671;DHT22;12012;51.998;7.614;2023-02-28T17:24:02;5.30;1.00
23671;DHT22;12012;51.998;7.614;2023-02-28T17:26:28;5.20;1.00
23671;DHT22;12012;51.998;7.614;2023-02-28T17:28:55;5.10;1.00
23671;DHT22;12012;51.998;7.614;2023-02-28T17:31:22;5.00;1.00
23671;DHT22;12012;51.998;7.614;2023-02-28T17:33:47;4.90;1.00
23671;DHT22;12012;51.998;7.614;2023-02-28T17:36:15;4.80;1.00
23671;DHT22;12012;51.998;7.614;2023-02-28T17:38:41;4.80;1.00
23671;DHT22;12012;51.998;7.614;2023-02-28T17:41:09;4.70;1.00
23671;DHT22;12012;51.998;7.614;2023-02-28T17:43:35;4.60;1.00
23671;DHT22;12012;51.998;7.614;2023-02-28T17:46:01;4.50;1.00
23671;DHT22;12012;51.998;7.614;2023-02-28T17:48:26;4.50;1.00
23671;DHT22;12012;51.998;7.614;2023-02-28T17:50:53;4.40;1.00
23671;DHT22;12012;51.998;7.614;2023-02-28T17:53:19;4.40;1.00
23671;DHT22;12012;51.998;7.614;2023-02-28T17:55:48;4.30;1.00
23671;DHT22;12012;51.998;7.614;2023-02-28T17:58:14;4.30;1.00
23671;DHT22;12012;51.998;7.614;2023-02-28T18:00:40;4.20;1.00
23671;DHT22;12012;51.998;7.614;2023-02-28T18:03:06;4.20;1.00
23671;DHT22;12012;51.998;7.614;2023-02-28T18:05:32;4.10;1.00
23671;DHT22;12012;51.998;7.614;2023-02-28T18:07:57;4.10;1.00